createdAt,value
2022-11-09T00:00:05.748Z,6.95
2022-11-09T00:02:52.472Z,6.91
2022-11-09T00:05:19.318Z,6.90
2022-11-09T00:07:46.175Z,6.90
2022-11-09T00:10:13.310Z,6.90
2022-11-09T00:12:40.195Z,6.89
2022-11-09T00:15:08.332Z,6.87
2022-11-09T00:17:35.275Z,6.86
2022-11-09T00:20:02.359Z,6.83
2022-11-09T00:22:29.195Z,6.81
2022-11-09T00:24:56.113Z,6.77
2022-11-09T00:27:22.970Z,6.75
2022-11-09T00:29:50.078Z,6.72
2022-11-09T00:32:18.461Z,6.70
2022-11-09T00:34:45.652Z,6.69
2022-11-09T00:37:12.525Z,6.66
2022-11-09T00:39:39.402Z,6.65
2022-11-09T00:42:07.443Z,6.65
2022-11-09T00:44:34.312Z,6.64
2022-11-09T00:47:01.198Z,6.64
2022-11-09T00:49:28.020Z,6.63
2022-11-09T00:51:55.074Z,6.64
2022-11-09T00:54:22.908Z,6.64
2022-11-09T00:56:49.733Z,6.66
2022-11-09T00:59:16.986Z,6.68
2022-11-09T01:01:43.867Z,6.69
2022-11-09T01:04:10.863Z,6.69
2022-11-09T01:06:37.976Z,6.70
2022-11-09T01:09:05.071Z,6.71
2022-11-09T01:11:31.885Z,6.71
2022-11-09T01:14:01.232Z,6.72
2022-11-09T01:16:29.046Z,6.72
2022-11-09T01:18:58.622Z,6.72
2022-11-09T01:21:26.380Z,6.73
2022-11-09T01:23:53.562Z,6.75
2022-11-09T01:26:20.511Z,6.76
2022-11-09T01:28:48.019Z,6.78
2022-11-09T01:31:17.889Z,6.80
2022-11-09T01:33:45.544Z,6.79
2022-11-09T01:36:14.517Z,6.81
2022-11-09T01:38:42.181Z,6.81
2022-11-09T01:41:12.586Z,6.80
2022-11-09T01:43:39.422Z,6.80
2022-11-09T01:46:16.310Z,6.81
2022-11-09T01:48:49.758Z,6.80
2022-11-09T01:51:25.627Z,6.78
2022-11-09T01:53:59.215Z,6.76
2022-11-09T01:56:27.460Z,6.75
2022-11-09T01:58:57.092Z,6.73
2022-11-09T02:01:24.899Z,6.71
2022-11-09T02:03:56.665Z,6.71
2022-11-09T02:06:26.861Z,6.70
2022-11-09T02:08:58.505Z,6.68
2022-11-09T02:11:29.339Z,6.65
2022-11-09T02:14:01.870Z,6.61
2022-11-09T02:16:30.076Z,6.58
2022-11-09T02:19:00.799Z,6.55
2022-11-09T02:21:29.873Z,6.54
2022-11-09T02:23:57.145Z,6.52
2022-11-09T02:26:29.979Z,6.49
2022-11-09T02:28:59.243Z,6.47
2022-11-09T02:31:32.284Z,6.45
2022-11-09T02:34:04.994Z,6.43
2022-11-09T02:36:32.233Z,6.42
2022-11-09T02:39:00.935Z,6.41
2022-11-09T02:41:29.829Z,6.39
2022-11-09T02:43:57.627Z,6.38
2022-11-09T02:46:31.901Z,6.37
2022-11-09T02:48:58.926Z,6.36
2022-11-09T02:51:25.801Z,6.36
2022-11-09T02:53:53.545Z,6.36
2022-11-09T02:56:21.681Z,6.37
2022-11-09T02:58:48.683Z,6.39
2022-11-09T03:01:16.947Z,6.39
2022-11-09T03:03:44.614Z,6.40
2022-11-09T03:06:12.815Z,6.41
2022-11-09T03:08:40.882Z,6.41
2022-11-09T03:11:08.110Z,6.40
2022-11-09T03:13:35.446Z,6.41
2022-11-09T03:16:07.103Z,6.40
2022-11-09T03:18:36.955Z,6.39
2022-11-09T03:21:08.041Z,6.40
2022-11-09T03:23:35.359Z,6.42
2022-11-09T03:26:02.883Z,6.42
2022-11-09T03:28:29.833Z,6.42
2022-11-09T03:30:57.119Z,6.43
2022-11-09T03:33:24.400Z,6.43
2022-11-09T03:35:51.461Z,6.43
2022-11-09T03:38:18.630Z,6.43
2022-11-09T03:40:46.088Z,6.43
2022-11-09T03:43:12.949Z,6.44
2022-11-09T03:45:40.671Z,6.45
2022-11-09T03:48:08.196Z,6.47
2022-11-09T03:50:40.284Z,6.47
2022-11-09T03:53:07.551Z,6.47
2022-11-09T03:55:34.572Z,6.45
2022-11-09T03:58:01.619Z,6.43
2022-11-09T04:00:28.564Z,6.43
2022-11-09T04:02:55.872Z,6.42
2022-11-09T04:05:22.826Z,6.40
2022-11-09T04:07:54.739Z,6.38
2022-11-09T04:10:22.834Z,6.39
2022-11-09T04:12:49.929Z,6.40
2022-11-09T04:15:17.545Z,6.41
2022-11-09T04:17:44.853Z,6.44
2022-11-09T04:20:14.023Z,6.45
2022-11-09T04:22:40.927Z,6.45
2022-11-09T04:25:09.067Z,6.42
2022-11-09T04:27:35.867Z,6.40
2022-11-09T04:30:02.740Z,6.39
2022-11-09T04:32:29.574Z,6.39
2022-11-09T04:34:56.400Z,6.38
2022-11-09T04:37:23.292Z,6.39
2022-11-09T04:39:50.124Z,6.38
2022-11-09T04:42:17.007Z,6.36
2022-11-09T04:44:44.016Z,6.34
2022-11-09T04:47:11.012Z,6.31
2022-11-09T04:49:37.899Z,6.27
2022-11-09T04:52:04.860Z,6.24
2022-11-09T04:54:31.849Z,6.23
2022-11-09T04:56:58.735Z,6.21
2022-11-09T04:59:25.645Z,6.22
2022-11-09T05:01:52.433Z,6.22
2022-11-09T05:04:19.419Z,6.23
2022-11-09T05:06:46.534Z,6.22
2022-11-09T05:09:13.552Z,6.23
2022-11-09T05:11:40.515Z,6.21
2022-11-09T05:14:07.386Z,6.19
2022-11-09T05:16:34.776Z,6.17
2022-11-09T05:19:01.669Z,6.16
2022-11-09T05:21:28.793Z,6.14
2022-11-09T05:24:03.020Z,6.13
2022-11-09T05:26:31.568Z,6.12
2022-11-09T05:28:59.177Z,6.12
2022-11-09T05:31:26.396Z,6.12
2022-11-09T05:33:54.300Z,6.13
2022-11-09T05:36:21.768Z,6.14
2022-11-09T05:38:48.848Z,6.12
2022-11-09T05:41:16.145Z,6.10
2022-11-09T05:43:44.681Z,6.05
2022-11-09T05:46:11.737Z,6.03
2022-11-09T05:48:38.686Z,6.04
2022-11-09T05:51:07.456Z,6.05
2022-11-09T05:53:34.976Z,6.06
2022-11-09T05:56:06.620Z,6.09
2022-11-09T05:58:36.556Z,6.12
2022-11-09T06:01:03.450Z,6.15
2022-11-09T06:03:30.328Z,6.18
2022-11-09T06:06:06.790Z,6.20
2022-11-09T06:08:35.614Z,6.20
2022-11-09T06:11:04.857Z,6.21
2022-11-09T06:13:32.340Z,6.24
2022-11-09T06:16:00.702Z,6.28
2022-11-09T06:18:29.188Z,6.31
2022-11-09T06:20:58.269Z,6.34
2022-11-09T06:23:25.864Z,6.37
2022-11-09T06:25:53.587Z,6.41
2022-11-09T06:28:20.649Z,6.45
2022-11-09T06:30:47.876Z,6.49
2022-11-09T06:33:14.804Z,6.52
2022-11-09T06:35:42.223Z,6.54
2022-11-09T06:38:19.277Z,6.57
2022-11-09T06:40:46.514Z,6.58
2022-11-09T06:43:13.416Z,6.60
2022-11-09T06:45:40.329Z,6.63
2022-11-09T06:48:07.769Z,6.67
2022-11-09T06:50:35.372Z,6.69
2022-11-09T06:53:04.698Z,6.73
2022-11-09T06:55:33.271Z,6.80
2022-11-09T06:58:00.688Z,6.91
2022-11-09T07:00:29.171Z,7.06
2022-11-09T07:02:56.254Z,7.21
2022-11-09T07:05:23.437Z,7.34
2022-11-09T07:07:50.722Z,7.41
2022-11-09T07:10:18.122Z,7.43
2022-11-09T07:12:45.017Z,7.45
2022-11-09T07:15:13.880Z,7.51
2022-11-09T07:17:41.375Z,7.58
2022-11-09T07:20:10.910Z,7.62
2022-11-09T07:22:40.358Z,7.66
2022-11-09T07:25:09.789Z,7.69
2022-11-09T07:27:37.206Z,7.69
2022-11-09T07:30:05.066Z,7.71
2022-11-09T07:33:07.407Z,7.69
2022-11-09T07:35:20.757Z,7.71
2022-11-09T07:37:47.916Z,7.77
2022-11-09T07:40:16.153Z,7.85
2022-11-09T07:42:43.057Z,7.96
2022-11-09T07:45:11.225Z,8.05
2022-11-09T07:47:38.061Z,8.14
2022-11-09T07:50:05.257Z,8.21
2022-11-09T07:52:32.268Z,8.25
2022-11-09T07:54:59.156Z,8.32
2022-11-09T07:57:26.123Z,8.38
2022-11-09T07:59:53.669Z,8.44
2022-11-09T08:02:23.661Z,8.57
2022-11-09T08:04:51.043Z,8.76
2022-11-09T08:07:17.922Z,8.89
2022-11-09T08:09:45.266Z,9.02
2022-11-09T08:12:12.366Z,9.14
2022-11-09T08:14:39.194Z,9.22
2022-11-09T08:17:06.185Z,9.29
2022-11-09T08:19:33.166Z,9.36
2022-11-09T08:22:00.756Z,9.50
2022-11-09T08:24:27.734Z,9.66
2022-11-09T08:26:55.974Z,9.84
2022-11-09T08:29:23.106Z,9.93
2022-11-09T08:31:52.066Z,9.94
2022-11-09T08:34:19.572Z,9.99
2022-11-09T08:36:46.452Z,10.12
2022-11-09T08:39:15.778Z,10.32
2022-11-09T08:41:44.948Z,10.48
2022-11-09T08:44:11.825Z,10.68
2022-11-09T08:46:41.396Z,10.95
2022-11-09T08:49:08.664Z,11.23
2022-11-09T08:51:35.975Z,11.42
2022-11-09T08:54:02.872Z,11.56
2022-11-09T08:56:30.058Z,11.60
2022-11-09T08:58:57.006Z,11.53
2022-11-09T09:01:25.461Z,11.40
2022-11-09T09:03:52.905Z,11.29
2022-11-09T09:06:20.132Z,11.33
2022-11-09T09:08:47.146Z,11.44
2022-11-09T09:11:14.189Z,11.63
2022-11-09T09:13:43.519Z,11.87
2022-11-09T09:16:16.286Z,12.10
2022-11-09T09:18:43.458Z,12.30
2022-11-09T09:21:13.474Z,12.55
2022-11-09T09:23:40.688Z,12.67
2022-11-09T09:26:07.998Z,12.72
2022-11-09T09:28:34.993Z,12.61
2022-11-09T09:31:02.810Z,12.62
2022-11-09T09:33:30.120Z,12.79
2022-11-09T09:35:59.740Z,12.91
2022-11-09T09:38:27.219Z,13.03
2022-11-09T09:40:59.497Z,13.04
2022-11-09T09:43:32.184Z,13.16
2022-11-09T09:46:01.934Z,13.28
2022-11-09T09:48:36.829Z,13.29
2022-11-09T09:51:10.250Z,13.20
2022-11-09T09:53:44.473Z,13.03
2022-11-09T09:56:18.130Z,12.84
2022-11-09T09:58:50.584Z,12.69
2022-11-09T10:01:20.208Z,12.62
2022-11-09T10:03:47.221Z,12.57
2022-11-09T10:06:31.819Z,12.53
2022-11-09T10:09:07.444Z,12.48
2022-11-09T10:11:44.615Z,12.39
2022-11-09T10:14:31.735Z,12.35
2022-11-09T10:17:08.766Z,12.23
2022-11-09T10:19:49.480Z,12.17
2022-11-09T10:22:23.578Z,12.07
2022-11-09T10:25:20.725Z,11.99
2022-11-09T10:27:52.952Z,11.87
2022-11-09T10:30:22.562Z,11.83
2022-11-09T10:32:52.592Z,11.79
2022-11-09T10:35:22.857Z,11.75
2022-11-09T10:37:52.376Z,11.75
2022-11-09T10:40:25.214Z,11.81
2022-11-09T10:43:14.019Z,11.92
2022-11-09T10:46:05.950Z,11.98
2022-11-09T10:48:52.136Z,12.06
2022-11-09T10:51:46.496Z,12.08
2022-11-09T10:54:35.201Z,12.10
2022-11-09T10:57:22.509Z,12.10
2022-11-09T11:00:14.852Z,12.13
2022-11-09T11:03:10.467Z,12.16
2022-11-09T11:06:01.417Z,12.25
2022-11-09T11:08:48.849Z,12.31
2022-11-09T11:11:36.951Z,12.36
2022-11-09T11:14:30.308Z,12.45
2022-11-09T11:17:26.025Z,12.50
2022-11-09T11:20:38.683Z,12.46
2022-11-09T11:23:26.320Z,12.48
2022-11-09T11:26:35.659Z,12.52
2022-11-09T11:29:33.857Z,12.56
2022-11-09T11:32:21.866Z,12.57
2022-11-09T11:35:14.023Z,12.52
2022-11-09T11:38:12.965Z,12.54
2022-11-09T11:41:11.481Z,12.58
2022-11-09T11:44:04.418Z,12.56
2022-11-09T11:47:10.008Z,12.55
2022-11-09T11:50:22.490Z,12.50
2022-11-09T11:53:18.985Z,12.47
2022-11-09T11:56:27.647Z,12.45
2022-11-09T11:59:38.892Z,12.52
2022-11-09T12:03:04.579Z,12.69
2022-11-09T12:06:12.672Z,12.81
2022-11-09T12:09:15.480Z,12.84
2022-11-09T12:12:14.328Z,12.86
2022-11-09T12:15:28.490Z,12.92
2022-11-09T12:18:31.217Z,12.97
2022-11-09T12:21:20.469Z,13.01
2022-11-09T12:24:16.909Z,13.10
2022-11-09T12:27:36.581Z,13.15
2022-11-09T12:30:25.081Z,13.11
2022-11-09T12:33:15.925Z,13.11
2022-11-09T12:36:08.413Z,13.13
2022-11-09T12:39:03.599Z,13.14
2022-11-09T12:41:51.023Z,13.10
2022-11-09T12:44:40.013Z,13.09
2022-11-09T12:47:31.607Z,13.06
2022-11-09T12:50:20.862Z,13.05
2022-11-09T12:53:09.191Z,13.02
2022-11-09T12:55:59.453Z,12.96
2022-11-09T12:58:45.291Z,12.92
2022-11-09T13:01:53.219Z,12.90
2022-11-09T13:04:38.960Z,12.85
2022-11-09T13:07:43.620Z,12.76
2022-11-09T13:10:35.450Z,12.67
2022-11-09T13:13:26.498Z,12.61
2022-11-09T13:16:34.866Z,12.61
2022-11-09T13:19:54.384Z,12.58
2022-11-09T13:23:01.768Z,12.51
2022-11-09T13:25:54.740Z,12.47
2022-11-09T13:29:08.148Z,12.41
2022-11-09T13:32:28.702Z,12.33
2022-11-09T13:35:44.876Z,12.24
2022-11-09T13:38:33.303Z,12.15
2022-11-09T13:41:44.861Z,12.09
2022-11-09T13:44:34.465Z,12.06
2022-11-09T13:47:35.236Z,12.03
2022-11-09T13:50:24.192Z,11.99
2022-11-09T13:53:31.512Z,11.98
2022-11-09T13:56:27.055Z,11.97
2022-11-09T13:59:18.351Z,11.96
2022-11-09T14:02:04.907Z,11.96
2022-11-09T14:04:50.832Z,11.93
2022-11-09T14:07:36.941Z,11.91
2022-11-09T14:10:30.848Z,11.89
2022-11-09T14:13:32.166Z,11.86
2022-11-09T14:16:27.625Z,11.86
2022-11-09T14:19:27.771Z,11.84
2022-11-09T14:22:19.757Z,11.84
2022-11-09T14:25:14.732Z,11.82
2022-11-09T14:28:00.476Z,11.82
2022-11-09T14:30:47.873Z,11.83
2022-11-09T14:33:34.858Z,11.84
2022-11-09T14:36:20.707Z,11.82
2022-11-09T14:39:18.539Z,11.81
2022-11-09T14:42:06.642Z,11.80
2022-11-09T14:44:58.414Z,11.78
2022-11-09T14:47:49.213Z,11.75
2022-11-09T14:50:38.075Z,11.71
2022-11-09T14:53:27.451Z,11.68
2022-11-09T14:56:16.301Z,11.65
2022-11-09T14:59:02.852Z,11.63
2022-11-09T15:02:02.257Z,11.61
2022-11-09T15:05:03.214Z,11.61
2022-11-09T15:07:49.462Z,11.59
2022-11-09T15:10:35.319Z,11.58
2022-11-09T15:13:29.211Z,11.56
2022-11-09T15:16:25.138Z,11.53
2022-11-09T15:19:23.534Z,11.52
2022-11-09T15:22:48.378Z,11.48
2022-11-09T15:25:37.433Z,11.44
2022-11-09T15:28:26.122Z,11.39
2022-11-09T15:31:16.735Z,11.35
2022-11-09T15:34:02.333Z,11.33
2022-11-09T15:36:56.188Z,11.30
2022-11-09T15:39:41.755Z,11.27
2022-11-09T15:42:27.958Z,11.24
2022-11-09T15:45:17.299Z,11.20
2022-11-09T15:48:04.161Z,11.17
2022-11-09T15:50:49.639Z,11.13
2022-11-09T15:53:35.519Z,11.09
2022-11-09T15:56:23.535Z,11.04
2022-11-09T15:59:14.145Z,11.02
2022-11-09T16:01:59.540Z,11.00
2022-11-09T16:04:45.757Z,10.97
2022-11-09T16:07:31.342Z,10.95
2022-11-09T16:10:17.889Z,10.94
2022-11-09T16:13:03.721Z,10.90
2022-11-09T16:15:49.380Z,10.86
2022-11-09T16:18:37.801Z,10.83
2022-11-09T16:21:23.904Z,10.80
2022-11-09T16:24:13.741Z,10.77
2022-11-09T16:26:59.970Z,10.73
2022-11-09T16:29:45.913Z,10.68
2022-11-09T16:32:31.879Z,10.63
2022-11-09T16:35:27.233Z,10.59
2022-11-09T16:38:13.260Z,10.53
2022-11-09T16:41:00.825Z,10.48
2022-11-09T16:43:48.587Z,10.44
2022-11-09T16:46:34.894Z,10.40
2022-11-09T16:49:20.490Z,10.36
2022-11-09T16:52:07.143Z,10.33
2022-11-09T16:54:53.255Z,10.30
2022-11-09T16:57:39.690Z,10.26
2022-11-09T17:00:33.743Z,10.24
2022-11-09T17:03:31.937Z,10.22
2022-11-09T17:06:17.549Z,10.18
2022-11-09T17:09:03.305Z,10.15
2022-11-09T17:11:48.850Z,10.11
2022-11-09T17:14:34.123Z,10.09
2022-11-09T17:17:22.618Z,10.05
2022-11-09T17:20:11.136Z,10.03
2022-11-09T17:23:03.466Z,10.01
2022-11-09T17:26:04.205Z,9.98
2022-11-09T17:29:00.037Z,9.94
2022-11-09T17:31:49.877Z,9.92
2022-11-09T17:34:40.408Z,9.92
2022-11-09T17:37:26.383Z,9.94
2022-11-09T17:40:22.208Z,9.97
2022-11-09T17:43:09.882Z,9.94
2022-11-09T17:45:56.928Z,9.92
2022-11-09T17:48:44.887Z,9.91
2022-11-09T17:51:31.393Z,9.89
2022-11-09T17:54:17.183Z,9.86
2022-11-09T17:57:02.980Z,9.82
2022-11-09T17:59:48.959Z,9.78
2022-11-09T18:02:35.244Z,9.76
2022-11-09T18:05:20.985Z,9.75
2022-11-09T18:08:17.270Z,9.74
2022-11-09T18:11:02.912Z,9.74
2022-11-09T18:13:49.079Z,9.76
2022-11-09T18:16:34.626Z,9.76
2022-11-09T18:19:23.227Z,9.74
2022-11-09T18:22:12.850Z,9.70
2022-11-09T18:25:01.941Z,9.66
2022-11-09T18:27:49.246Z,9.64
2022-11-09T18:30:55.230Z,9.63
2022-11-09T18:33:41.161Z,9.62
2022-11-09T18:36:28.025Z,9.59
2022-11-09T18:39:13.893Z,9.59
2022-11-09T18:42:01.968Z,9.59
2022-11-09T18:44:47.788Z,9.64
2022-11-09T18:47:33.736Z,9.67
2022-11-09T18:50:21.908Z,9.68
2022-11-09T18:53:07.557Z,9.68
2022-11-09T18:55:53.457Z,9.69
2022-11-09T18:58:39.533Z,9.69
2022-11-09T19:01:27.280Z,9.69
2022-11-09T19:04:16.786Z,9.65
2022-11-09T19:07:00.845Z,9.62
2022-11-09T19:09:46.960Z,9.58
2022-11-09T19:12:32.641Z,9.56
2022-11-09T19:15:20.461Z,9.53
2022-11-09T19:18:04.494Z,9.52
2022-11-09T19:20:50.529Z,9.50
2022-11-09T19:23:36.182Z,9.50
2022-11-09T19:26:22.341Z,9.51
2022-11-09T19:29:08.923Z,9.51
2022-11-09T19:31:55.069Z,9.51
2022-11-09T19:34:42.813Z,9.51
2022-11-09T19:37:29.001Z,9.48
2022-11-09T19:40:15.695Z,9.45
2022-11-09T19:43:01.334Z,9.41
2022-11-09T19:45:46.835Z,9.38
2022-11-09T19:48:34.853Z,9.37
2022-11-09T19:51:20.901Z,9.37
2022-11-09T19:54:07.528Z,9.37
2022-11-09T19:56:52.915Z,9.36
2022-11-09T19:59:38.268Z,9.32
2022-11-09T20:02:26.557Z,9.28
2022-11-09T20:05:12.468Z,9.23
2022-11-09T20:07:58.170Z,9.17
2022-11-09T20:10:43.472Z,9.12
2022-11-09T20:13:29.154Z,9.07
2022-11-09T20:16:15.167Z,9.06
2022-11-09T20:19:01.251Z,9.02
2022-11-09T20:21:47.116Z,8.97
2022-11-09T20:24:32.537Z,8.95
2022-11-09T20:27:18.129Z,8.94
2022-11-09T20:30:04.273Z,8.90
2022-11-09T20:32:52.873Z,8.87
2022-11-09T20:35:41.812Z,8.83
2022-11-09T20:38:32.524Z,8.76
2022-11-09T20:41:22.909Z,8.68
2022-11-09T20:44:11.171Z,8.62
2022-11-09T20:46:56.797Z,8.56
2022-11-09T20:49:42.369Z,8.50
2022-11-09T20:52:27.893Z,8.43
2022-11-09T20:55:15.059Z,8.39
2022-11-09T20:57:59.157Z,8.34
2022-11-09T21:00:45.039Z,8.29
2022-11-09T21:03:30.996Z,8.23
2022-11-09T21:06:17.392Z,8.15
2022-11-09T21:09:05.559Z,8.07
2022-11-09T21:12:08.874Z,7.99
2022-11-09T21:14:55.087Z,7.90
2022-11-09T21:17:40.895Z,7.84
2022-11-09T21:20:26.295Z,7.77
2022-11-09T21:23:30.852Z,7.71
2022-11-09T21:26:34.189Z,7.66
2022-11-09T21:29:38.499Z,7.60
2022-11-09T21:32:25.115Z,7.54
2022-11-09T21:35:11.543Z,7.51
2022-11-09T21:37:58.934Z,7.46
2022-11-09T21:40:44.411Z,7.40
2022-11-09T21:43:30.187Z,7.37
2022-11-09T21:46:16.256Z,7.34
2022-11-09T21:49:01.821Z,7.32
2022-11-09T21:51:49.376Z,7.30
2022-11-09T21:54:35.526Z,7.26
2022-11-09T21:57:21.340Z,7.24
2022-11-09T22:00:09.395Z,7.21
2022-11-09T22:02:54.976Z,7.19
2022-11-09T22:05:41.811Z,7.19
2022-11-09T22:08:27.313Z,7.19
2022-11-09T22:11:14.889Z,7.21
2022-11-09T22:14:29.881Z,7.21
2022-11-09T22:17:15.922Z,7.22
2022-11-09T22:20:19.358Z,7.22
2022-11-09T22:23:09.083Z,7.18
2022-11-09T22:25:55.103Z,7.16
2022-11-09T22:28:40.909Z,7.10
2022-11-09T22:31:27.205Z,7.05
2022-11-09T22:34:12.672Z,7.01
2022-11-09T22:36:58.475Z,6.98
2022-11-09T22:39:47.281Z,6.94
2022-11-09T22:42:34.306Z,6.92
2022-11-09T22:45:19.670Z,6.91
2022-11-09T22:48:05.170Z,6.89
2022-11-09T22:50:50.765Z,6.85
2022-11-09T22:53:36.829Z,6.85
2022-11-09T22:56:22.774Z,6.84
2022-11-09T22:59:09.020Z,6.83
2022-11-09T23:01:54.797Z,6.84
2022-11-09T23:04:40.766Z,6.84
2022-11-09T23:07:26.471Z,6.85
2022-11-09T23:10:12.843Z,6.86
2022-11-09T23:12:59.167Z,6.88
2022-11-09T23:15:44.717Z,6.90
2022-11-09T23:18:48.960Z,6.91
2022-11-09T23:21:36.346Z,6.93
2022-11-09T23:24:35.905Z,6.94
2022-11-09T23:27:21.251Z,6.97
2022-11-09T23:30:07.559Z,6.98
2022-11-09T23:32:53.272Z,6.99
2022-11-09T23:35:38.889Z,7.02
2022-11-09T23:38:25.219Z,7.03
2022-11-09T23:41:13.297Z,7.05
2022-11-09T23:43:59.258Z,7.08
2022-11-09T23:46:44.861Z,7.09
2022-11-09T23:49:30.446Z,7.09
2022-11-09T23:52:16.039Z,7.11
2022-11-09T23:55:01.459Z,7.14
2022-11-09T23:57:47.004Z,7.18
